createdAt,value
2019-04-06T00:00:38.919Z,2.20
2019-04-06T00:03:08.644Z,2.20
2019-04-06T00:05:38.310Z,2.20
2019-04-06T00:08:07.994Z,2.20
2019-04-06T00:10:37.735Z,2.10
2019-04-06T00:13:07.470Z,2.10
2019-04-06T00:15:37.274Z,2.10
2019-04-06T00:18:07.030Z,2.10
2019-04-06T00:20:36.689Z,2.10
2019-04-06T00:23:06.362Z,2.10
2019-04-06T00:25:44.409Z,2.00
2019-04-06T00:28:07.746Z,2.00
2019-04-06T00:30:42.034Z,2.00
2019-04-06T00:33:19.456Z,2.00
2019-04-06T00:35:49.180Z,2.00
2019-04-06T00:38:18.867Z,2.00
2019-04-06T00:40:48.509Z,2.00
2019-04-06T00:43:18.150Z,2.00
2019-04-06T00:45:47.804Z,2.00
2019-04-06T00:48:17.526Z,1.90
2019-04-06T00:50:47.165Z,1.90
2019-04-06T00:53:16.802Z,1.90
2019-04-06T00:55:55.075Z,1.90
2019-04-06T00:58:17.772Z,1.90
2019-04-06T01:00:47.455Z,1.90
2019-04-06T01:03:18.591Z,1.90
2019-04-06T01:05:48.398Z,1.90
2019-04-06T01:08:18.076Z,1.90
2019-04-06T01:10:47.816Z,1.90
2019-04-06T01:13:17.525Z,1.90
2019-04-06T01:15:47.147Z,1.90
2019-04-06T01:18:16.875Z,1.90
2019-04-06T01:20:46.558Z,1.90
2019-04-06T01:23:16.239Z,1.80
2019-04-06T01:25:45.942Z,1.80
2019-04-06T01:28:15.672Z,1.80
2019-04-06T01:30:45.351Z,1.80
2019-04-06T01:33:15.021Z,1.80
2019-04-06T01:35:44.676Z,1.80
2019-04-06T01:38:14.410Z,1.80
2019-04-06T01:40:44.160Z,1.70
2019-04-06T01:43:13.932Z,1.70
2019-04-06T01:45:43.652Z,1.70
2019-04-06T01:48:13.319Z,1.70
2019-04-06T01:50:43.064Z,1.70
2019-04-06T01:53:12.675Z,1.70
2019-04-06T01:55:42.346Z,1.70
2019-04-06T01:58:12.036Z,1.70
2019-04-06T02:00:43.278Z,1.60
2019-04-06T02:03:12.964Z,1.60
2019-04-06T02:05:42.680Z,1.60
2019-04-06T02:08:13.363Z,1.60
2019-04-06T02:10:43.066Z,1.60
2019-04-06T02:13:13.277Z,1.60
2019-04-06T02:15:42.957Z,1.60
2019-04-06T02:18:12.653Z,1.60
2019-04-06T02:20:42.238Z,1.60
2019-04-06T02:23:11.900Z,1.60
2019-04-06T02:25:41.627Z,1.50
2019-04-06T02:28:11.237Z,1.50
2019-04-06T02:30:51.259Z,1.50
2019-04-06T02:33:25.282Z,1.50
2019-04-06T02:36:11.512Z,1.50
2019-04-06T02:38:43.794Z,1.50
2019-04-06T02:41:15.047Z,1.40
2019-04-06T02:43:44.714Z,1.40
2019-04-06T02:46:14.449Z,1.40
2019-04-06T02:48:44.232Z,1.40
2019-04-06T02:51:13.958Z,1.40
2019-04-06T02:53:43.575Z,1.30
2019-04-06T02:56:13.314Z,1.30
2019-04-06T02:58:43.050Z,1.30
2019-04-06T03:01:12.693Z,1.30
2019-04-06T03:03:42.444Z,1.30
2019-04-06T03:06:12.098Z,1.30
2019-04-06T03:08:41.781Z,1.30
2019-04-06T03:11:11.448Z,1.30
2019-04-06T03:13:41.133Z,1.30
2019-04-06T03:16:10.800Z,1.30
2019-04-06T03:18:40.488Z,1.30
2019-04-06T03:21:10.141Z,1.30
2019-04-06T03:23:50.477Z,1.30
2019-04-06T03:26:12.293Z,1.20
2019-04-06T03:28:41.971Z,1.20
2019-04-06T03:31:11.713Z,1.20
2019-04-06T03:33:41.464Z,1.20
2019-04-06T03:36:11.289Z,1.20
2019-04-06T03:38:41.959Z,1.20
2019-04-06T03:41:11.743Z,1.20
2019-04-06T03:43:42.383Z,1.20
2019-04-06T03:46:12.057Z,1.20
2019-04-06T03:48:42.020Z,1.20
2019-04-06T03:51:11.916Z,1.20
2019-04-06T03:53:41.650Z,1.20
2019-04-06T03:56:11.389Z,1.20
2019-04-06T03:58:41.050Z,1.20
2019-04-06T04:01:10.821Z,1.20
2019-04-06T04:03:40.547Z,1.20
2019-04-06T04:06:10.148Z,1.20
2019-04-06T04:08:39.951Z,1.20
2019-04-06T04:11:09.729Z,1.20
2019-04-06T04:13:40.296Z,1.20
2019-04-06T04:16:10.030Z,1.20
2019-04-06T04:18:39.696Z,1.20
2019-04-06T04:21:09.644Z,1.20
2019-04-06T04:23:39.951Z,1.20
2019-04-06T04:26:11.134Z,1.20
2019-04-06T04:28:40.791Z,1.30
2019-04-06T04:31:28.922Z,1.30
2019-04-06T04:34:01.300Z,1.30
2019-04-06T04:36:31.113Z,1.40
2019-04-06T04:39:00.810Z,1.40
2019-04-06T04:41:30.963Z,1.40
2019-04-06T04:44:00.734Z,1.50
2019-04-06T04:46:30.410Z,1.50
2019-04-06T04:49:00.082Z,1.50
2019-04-06T04:51:29.871Z,1.60
2019-04-06T04:53:59.428Z,1.60
2019-04-06T04:56:29.108Z,1.70
2019-04-06T04:58:58.848Z,1.70
2019-04-06T05:01:28.589Z,1.70
2019-04-06T05:03:58.337Z,1.80
2019-04-06T05:06:27.998Z,1.80
2019-04-06T05:08:57.652Z,1.90
2019-04-06T05:11:27.317Z,2.00
2019-04-06T05:14:33.432Z,2.00
2019-04-06T05:17:03.100Z,2.10
2019-04-06T05:19:32.752Z,2.10
2019-04-06T05:22:02.543Z,2.20
2019-04-06T05:24:33.342Z,2.30
2019-04-06T05:27:03.077Z,2.30
2019-04-06T05:29:33.331Z,2.40
2019-04-06T05:32:03.406Z,2.50
2019-04-06T05:34:33.123Z,2.50
2019-04-06T05:37:02.858Z,2.60
2019-04-06T05:39:32.592Z,2.70
2019-04-06T05:42:02.728Z,2.80
2019-04-06T05:44:32.531Z,2.90
2019-04-06T05:47:02.208Z,3.00
2019-04-06T05:49:32.089Z,3.00
2019-04-06T05:52:01.760Z,3.10
2019-04-06T05:54:31.484Z,3.20
2019-04-06T05:57:01.140Z,3.30
2019-04-06T05:59:30.822Z,3.40
2019-04-06T06:02:00.597Z,3.40
2019-04-06T06:04:31.258Z,3.60
2019-04-06T06:07:00.997Z,3.60
2019-04-06T06:09:30.930Z,3.70
2019-04-06T06:12:00.674Z,3.80
2019-04-06T06:14:30.454Z,3.90
2019-04-06T06:17:00.105Z,4.00
2019-04-06T06:19:29.770Z,4.10
2019-04-06T06:21:59.516Z,4.20
2019-04-06T06:24:29.238Z,4.20
2019-04-06T06:26:58.911Z,4.30
2019-04-06T06:29:28.715Z,4.40
2019-04-06T06:31:58.380Z,4.50
2019-04-06T06:34:28.176Z,4.60
2019-04-06T06:36:57.799Z,4.70
2019-04-06T06:39:27.491Z,4.80
2019-04-06T06:41:58.855Z,4.80
2019-04-06T06:44:28.590Z,4.90
2019-04-06T06:46:58.334Z,5.00
2019-04-06T06:49:27.982Z,5.10
2019-04-06T06:51:57.665Z,5.20
2019-04-06T06:54:28.574Z,5.30
2019-04-06T06:56:58.370Z,5.40
2019-04-06T06:59:28.038Z,5.50
2019-04-06T07:01:57.618Z,5.60
2019-04-06T07:04:27.258Z,5.70
2019-04-06T07:06:56.896Z,5.90
2019-04-06T07:09:26.548Z,6.00
2019-04-06T07:11:56.197Z,6.10
2019-04-06T07:14:26.044Z,6.20
2019-04-06T07:16:55.650Z,6.30
2019-04-06T07:19:25.299Z,6.40
2019-04-06T07:21:54.974Z,6.50
2019-04-06T07:24:24.560Z,6.70
2019-04-06T07:26:54.289Z,6.80
2019-04-06T07:29:24.918Z,6.90
2019-04-06T07:31:54.647Z,7.00
2019-04-06T07:34:24.293Z,7.10
2019-04-06T07:36:53.960Z,7.20
2019-04-06T07:39:23.620Z,7.30
2019-04-06T07:41:53.208Z,7.40
2019-04-06T07:44:22.895Z,7.50
2019-04-06T07:46:52.677Z,7.60
2019-04-06T07:49:22.541Z,7.70
2019-04-06T07:51:52.402Z,7.80
2019-04-06T07:54:22.064Z,7.90
2019-04-06T07:56:51.710Z,8.00
2019-04-06T07:59:21.338Z,8.20
2019-04-06T08:01:51.005Z,8.30
2019-04-06T08:04:20.786Z,8.40
2019-04-06T08:06:50.426Z,8.50
2019-04-06T08:09:20.147Z,8.70
2019-04-06T08:11:49.951Z,8.80
2019-04-06T08:14:19.717Z,8.90
2019-04-06T08:16:49.457Z,9.00
2019-04-06T08:19:19.090Z,9.10
2019-04-06T08:21:48.694Z,9.20
2019-04-06T08:24:18.389Z,9.40
2019-04-06T08:26:48.108Z,9.40
2019-04-06T08:29:17.760Z,9.60
2019-04-06T08:31:47.432Z,9.70
2019-04-06T08:34:17.080Z,9.80
2019-04-06T08:36:46.831Z,10.00
2019-04-06T08:39:16.490Z,10.10
2019-04-06T08:41:46.212Z,10.20
2019-04-06T08:44:15.906Z,10.40
2019-04-06T08:46:45.550Z,10.50
2019-04-06T08:49:15.226Z,10.60
2019-04-06T08:51:44.838Z,10.70
2019-04-06T08:54:14.550Z,10.80
2019-04-06T08:56:44.730Z,11.00
2019-04-06T08:59:14.368Z,11.10
2019-04-06T09:01:45.154Z,11.20
2019-04-06T09:04:14.814Z,11.30
2019-04-06T09:06:44.552Z,11.40
2019-04-06T09:09:14.270Z,11.50
2019-04-06T09:11:43.974Z,11.70
2019-04-06T09:14:13.628Z,11.80
2019-04-06T09:16:43.430Z,11.90
2019-04-06T09:19:13.039Z,12.00
2019-04-06T09:21:42.662Z,12.10
2019-04-06T09:24:12.315Z,12.20
2019-04-06T09:26:42.003Z,12.30
2019-04-06T09:29:22.558Z,12.40
2019-04-06T09:31:43.045Z,12.60
2019-04-06T09:34:31.984Z,12.70
2019-04-06T09:37:01.853Z,12.90
2019-04-06T09:39:31.682Z,12.90
2019-04-06T09:42:01.451Z,12.90
2019-04-06T09:44:44.611Z,12.90
2019-04-06T09:47:15.868Z,13.00
2019-04-06T09:49:47.276Z,13.00
2019-04-06T09:52:36.959Z,13.10
2019-04-06T09:55:11.509Z,13.20
2019-04-06T09:57:54.829Z,13.30
2019-04-06T10:00:26.289Z,13.20
2019-04-06T10:03:01.262Z,13.30
2019-04-06T10:05:38.589Z,13.40
2019-04-06T10:08:24.938Z,13.50
2019-04-06T10:11:14.498Z,13.70
2019-04-06T10:13:51.960Z,13.80
2019-04-06T10:16:32.503Z,13.90
2019-04-06T10:19:06.871Z,14.00
2019-04-06T10:21:56.374Z,14.20
2019-04-06T10:24:43.932Z,14.30
2019-04-06T10:27:31.693Z,14.40
2019-04-06T10:30:03.267Z,14.50
2019-04-06T10:32:40.713Z,14.50
2019-04-06T10:35:21.208Z,14.60
2019-04-06T10:37:55.496Z,14.60
2019-04-06T10:40:33.764Z,14.70
2019-04-06T10:43:17.063Z,14.90
2019-04-06T10:46:00.391Z,15.00
2019-04-06T10:48:34.862Z,15.20
2019-04-06T10:51:18.407Z,15.20
2019-04-06T10:54:05.848Z,15.10
2019-04-06T10:56:43.030Z,15.30
2019-04-06T10:59:17.231Z,15.40
2019-04-06T11:01:57.826Z,15.50
2019-04-06T11:04:35.002Z,15.30
2019-04-06T11:07:22.412Z,15.50
2019-04-06T11:09:53.910Z,15.60
2019-04-06T11:12:43.529Z,15.70
2019-04-06T11:15:14.782Z,15.70
2019-04-06T11:17:57.637Z,15.80
2019-04-06T11:20:41.101Z,15.90
2019-04-06T11:23:15.144Z,15.70
2019-04-06T11:25:46.986Z,15.80
2019-04-06T11:28:21.264Z,15.90
2019-04-06T11:31:08.880Z,15.90
2019-04-06T11:33:45.941Z,16.00
2019-04-06T11:36:26.301Z,16.00
2019-04-06T11:38:57.495Z,16.10
2019-04-06T11:41:45.564Z,15.90
2019-04-06T11:44:16.968Z,15.80
2019-04-06T11:47:06.583Z,15.90
2019-04-06T11:49:56.260Z,16.00
2019-04-06T11:52:45.342Z,16.10
2019-04-06T11:55:16.581Z,15.80
2019-04-06T11:58:04.329Z,15.90
2019-04-06T12:00:35.753Z,15.90
2019-04-06T12:03:07.026Z,16.00
2019-04-06T12:05:44.993Z,16.20
2019-04-06T12:08:16.295Z,16.20
2019-04-06T12:11:06.279Z,16.30
2019-04-06T12:13:37.834Z,16.10
2019-04-06T12:16:15.080Z,16.10
2019-04-06T12:18:49.271Z,16.30
2019-04-06T12:21:23.296Z,16.20
2019-04-06T12:24:00.574Z,16.10
2019-04-06T12:26:41.038Z,15.90
2019-04-06T12:29:16.579Z,15.70
2019-04-06T12:32:04.642Z,15.80
2019-04-06T12:34:38.862Z,15.80
2019-04-06T12:37:16.167Z,15.90
2019-04-06T12:40:05.750Z,16.10
2019-04-06T12:42:42.922Z,16.10
2019-04-06T12:45:17.142Z,16.20
2019-04-06T12:47:48.388Z,16.30
2019-04-06T12:50:35.154Z,16.30
2019-04-06T12:53:21.652Z,16.20
2019-04-06T12:55:55.799Z,16.10
2019-04-06T12:58:27.082Z,16.00
2019-04-06T13:01:07.471Z,15.90
2019-04-06T13:03:38.998Z,16.10
2019-04-06T13:06:15.975Z,16.20
2019-04-06T13:08:53.174Z,16.50
2019-04-06T13:11:24.774Z,16.70
2019-04-06T13:14:02.057Z,17.00
2019-04-06T13:16:33.414Z,17.10
2019-04-06T13:19:13.821Z,17.20
2019-04-06T13:21:54.163Z,17.00
2019-04-06T13:24:25.775Z,17.00
2019-04-06T13:27:02.837Z,16.70
2019-04-06T13:29:39.955Z,16.60
2019-04-06T13:32:27.704Z,16.60
2019-04-06T13:35:04.716Z,16.80
2019-04-06T13:37:51.435Z,16.70
2019-04-06T13:40:38.256Z,16.80
2019-04-06T13:43:15.552Z,17.00
2019-04-06T13:45:49.572Z,17.00
2019-04-06T13:48:21.284Z,17.30
2019-04-06T13:50:56.586Z,17.40
2019-04-06T13:53:44.069Z,17.40
2019-04-06T13:56:18.130Z,17.40
2019-04-06T13:58:53.208Z,17.50
2019-04-06T14:01:27.410Z,17.60
2019-04-06T14:04:01.409Z,17.60
2019-04-06T14:06:32.644Z,17.70
2019-04-06T14:09:22.412Z,17.40
2019-04-06T14:11:53.775Z,17.60
2019-04-06T14:14:24.970Z,17.70
2019-04-06T14:16:57.528Z,17.70
2019-04-06T14:19:37.758Z,17.90
2019-04-06T14:22:12.013Z,18.00
2019-04-06T14:24:43.196Z,18.00
2019-04-06T14:27:26.553Z,18.00
2019-04-06T14:30:13.810Z,17.90
2019-04-06T14:32:54.146Z,17.80
2019-04-06T14:35:40.484Z,17.80
2019-04-06T14:38:21.091Z,17.80
2019-04-06T14:41:01.325Z,17.70
2019-04-06T14:43:32.621Z,17.70
2019-04-06T14:46:04.221Z,17.70
2019-04-06T14:48:51.798Z,17.70
2019-04-06T14:51:22.989Z,17.60
2019-04-06T14:54:12.586Z,17.30
2019-04-06T14:56:46.867Z,17.20
2019-04-06T14:59:24.615Z,17.00
2019-04-06T15:02:05.075Z,16.90
2019-04-06T15:04:51.231Z,16.80
2019-04-06T15:07:22.607Z,16.70
2019-04-06T15:09:57.970Z,16.60
2019-04-06T15:12:32.124Z,16.50
2019-04-06T15:15:15.419Z,16.30
2019-04-06T15:17:49.662Z,16.20
2019-04-06T15:20:20.954Z,16.20
2019-04-06T15:23:04.408Z,15.90
2019-04-06T15:25:45.018Z,15.90
2019-04-06T15:28:22.070Z,15.80
2019-04-06T15:30:54.301Z,15.80
2019-04-06T15:33:40.553Z,15.80
2019-04-06T15:36:23.883Z,15.70
2019-04-06T15:39:01.029Z,15.60
2019-04-06T15:41:36.994Z,15.50
2019-04-06T15:44:20.337Z,15.40
2019-04-06T15:46:54.545Z,15.20
2019-04-06T15:49:28.584Z,15.20
2019-04-06T15:52:18.242Z,15.10
2019-04-06T15:54:55.377Z,14.90
2019-04-06T15:57:42.038Z,14.80
2019-04-06T16:00:19.584Z,14.70
2019-04-06T16:02:57.069Z,14.70
2019-04-06T16:05:32.148Z,14.50
2019-04-06T16:08:19.794Z,14.40
2019-04-06T16:11:03.248Z,14.30
2019-04-06T16:13:48.782Z,14.30
2019-04-06T16:16:37.060Z,14.20
2019-04-06T16:19:11.338Z,14.20
2019-04-06T16:21:51.697Z,14.10
2019-04-06T16:24:35.025Z,14.10
2019-04-06T16:27:15.205Z,14.00
2019-04-06T16:29:54.017Z,13.90
2019-04-06T16:32:34.942Z,13.80
2019-04-06T16:35:12.686Z,13.70
2019-04-06T16:37:44.172Z,13.60
2019-04-06T16:40:16.402Z,13.50
2019-04-06T16:42:59.735Z,13.40
2019-04-06T16:45:34.226Z,13.30
2019-04-06T16:48:19.036Z,13.20
2019-04-06T16:50:50.643Z,13.10
2019-04-06T16:53:38.767Z,12.90
2019-04-06T16:56:18.460Z,12.80
2019-04-06T16:59:04.822Z,12.80
2019-04-06T17:01:38.838Z,12.70
2019-04-06T17:04:26.870Z,12.50
2019-04-06T17:07:10.014Z,12.40
2019-04-06T17:09:47.623Z,12.30
2019-04-06T17:12:36.941Z,12.20
2019-04-06T17:15:25.065Z,12.20
2019-04-06T17:17:56.394Z,12.10
2019-04-06T17:20:43.920Z,12.00
2019-04-06T17:23:18.206Z,11.90
2019-04-06T17:25:50.501Z,11.80
2019-04-06T17:28:39.865Z,11.70
2019-04-06T17:31:17.891Z,11.60
2019-04-06T17:34:04.996Z,11.50
2019-04-06T17:36:49.155Z,11.40
2019-04-06T17:39:20.606Z,11.30
2019-04-06T17:41:57.723Z,11.20
2019-04-06T17:44:29.007Z,11.10
2019-04-06T17:47:00.476Z,11.10
2019-04-06T17:49:34.730Z,11.00
2019-04-06T17:52:22.302Z,10.90
2019-04-06T17:54:53.650Z,10.80
2019-04-06T17:57:36.855Z,10.70
2019-04-06T18:00:26.305Z,10.70
2019-04-06T18:03:15.842Z,10.60
2019-04-06T18:06:05.422Z,10.50
2019-04-06T18:08:39.706Z,10.40
2019-04-06T18:11:11.108Z,10.30
2019-04-06T18:13:42.502Z,10.10
2019-04-06T18:16:12.053Z,10.00
2019-04-06T18:18:41.948Z,10.00
2019-04-06T18:21:11.625Z,9.90
2019-04-06T18:23:41.374Z,9.80
2019-04-06T18:26:11.412Z,9.80
2019-04-06T18:28:41.085Z,9.70
2019-04-06T18:31:28.504Z,9.70
2019-04-06T18:33:58.175Z,9.60
2019-04-06T18:36:35.639Z,9.50
2019-04-06T18:39:11.568Z,9.50
2019-04-06T18:41:41.288Z,9.40
2019-04-06T18:44:11.222Z,9.30
2019-04-06T18:46:40.964Z,9.30
2019-04-06T18:49:10.945Z,9.20
2019-04-06T18:51:41.007Z,9.10
2019-04-06T18:54:10.928Z,9.00
2019-04-06T18:56:40.628Z,9.00
2019-04-06T18:59:10.500Z,8.80
2019-04-06T19:01:40.413Z,8.80
2019-04-06T19:04:10.474Z,8.70
2019-04-06T19:06:40.308Z,8.70
2019-04-06T19:09:20.526Z,8.60
2019-04-06T19:11:52.866Z,8.50
2019-04-06T19:14:12.556Z,8.50
2019-04-06T19:16:42.185Z,8.40
2019-04-06T19:19:11.881Z,8.40
2019-04-06T19:21:41.517Z,8.30
2019-04-06T19:24:11.244Z,8.30
2019-04-06T19:26:41.091Z,8.20
2019-04-06T19:29:10.901Z,8.20
2019-04-06T19:31:40.980Z,8.10
2019-04-06T19:34:11.678Z,8.00
2019-04-06T19:36:41.423Z,7.90
2019-04-06T19:39:13.872Z,7.80
2019-04-06T19:41:43.540Z,7.70
2019-04-06T19:44:13.407Z,7.70
2019-04-06T19:46:43.335Z,7.60
2019-04-06T19:49:13.048Z,7.60
2019-04-06T19:51:43.007Z,7.60
2019-04-06T19:54:12.997Z,7.50
2019-04-06T19:56:42.940Z,7.50
2019-04-06T19:59:13.673Z,7.50
2019-04-06T20:01:43.428Z,7.40
2019-04-06T20:04:13.086Z,7.40
2019-04-06T20:06:42.834Z,7.40
2019-04-06T20:09:13.325Z,7.30
2019-04-06T20:11:43.156Z,7.30
2019-04-06T20:14:12.930Z,7.20
2019-04-06T20:16:43.062Z,7.20
2019-04-06T20:19:12.762Z,7.20
2019-04-06T20:21:42.425Z,7.20
2019-04-06T20:24:12.102Z,7.10
2019-04-06T20:26:41.764Z,7.10
2019-04-06T20:29:11.606Z,7.10
2019-04-06T20:31:41.730Z,7.00
2019-04-06T20:34:11.873Z,7.00
2019-04-06T20:36:41.948Z,7.00
2019-04-06T20:39:11.688Z,7.00
2019-04-06T20:41:41.565Z,6.90
2019-04-06T20:44:11.156Z,6.90
2019-04-06T20:46:40.998Z,6.80
2019-04-06T20:49:10.874Z,6.80
2019-04-06T20:51:40.575Z,6.80
2019-04-06T20:54:10.736Z,6.70
2019-04-06T20:56:52.467Z,6.70
2019-04-06T20:59:11.949Z,6.60
2019-04-06T21:01:41.774Z,6.60
2019-04-06T21:04:12.032Z,6.50
2019-04-06T21:06:41.819Z,6.50
2019-04-06T21:09:12.932Z,6.40
2019-04-06T21:11:42.573Z,6.30
2019-04-06T21:14:12.870Z,6.20
2019-04-06T21:16:42.614Z,6.20
2019-04-06T21:19:12.554Z,6.20
2019-04-06T21:21:42.806Z,6.10
2019-04-06T21:24:12.501Z,6.10
2019-04-06T21:26:42.353Z,6.10
2019-04-06T21:29:12.458Z,6.10
2019-04-06T21:31:42.198Z,6.00
2019-04-06T21:34:14.478Z,6.00
2019-04-06T21:36:43.109Z,5.90
2019-04-06T21:39:13.295Z,5.90
2019-04-06T21:41:43.010Z,5.80
2019-04-06T21:44:12.837Z,5.80
2019-04-06T21:46:42.522Z,5.70
2019-04-06T21:49:12.254Z,5.70
2019-04-06T21:51:42.071Z,5.70
2019-04-06T21:54:11.751Z,5.60
2019-04-06T21:56:41.337Z,5.50
2019-04-06T21:59:11.112Z,5.50
2019-04-06T22:01:41.479Z,5.50
2019-04-06T22:04:22.876Z,5.40
2019-04-06T22:06:42.587Z,5.40
2019-04-06T22:09:12.806Z,5.40
2019-04-06T22:11:42.502Z,5.30
2019-04-06T22:14:12.481Z,5.30
2019-04-06T22:16:43.067Z,5.20
2019-04-06T22:19:12.841Z,5.20
2019-04-06T22:21:42.945Z,5.20
2019-04-06T22:24:12.511Z,5.10
2019-04-06T22:26:42.760Z,5.10
2019-04-06T22:29:12.850Z,5.00
2019-04-06T22:31:42.563Z,4.90
2019-04-06T22:34:12.565Z,4.90
2019-04-06T22:36:42.422Z,4.90
2019-04-06T22:39:12.251Z,4.80
2019-04-06T22:41:42.252Z,4.80
2019-04-06T22:44:11.930Z,4.70
2019-04-06T22:46:41.852Z,4.70
2019-04-06T22:49:11.508Z,4.60
2019-04-06T22:51:41.192Z,4.60
2019-04-06T22:54:10.914Z,4.50
2019-04-06T22:56:40.534Z,4.40
2019-04-06T22:59:11.199Z,4.40
2019-04-06T23:01:41.850Z,4.30
2019-04-06T23:04:28.718Z,4.30
2019-04-06T23:07:00.682Z,4.30
2019-04-06T23:09:30.869Z,4.30
2019-04-06T23:12:00.757Z,4.20
2019-04-06T23:14:30.483Z,4.20
2019-04-06T23:17:00.148Z,4.20
2019-04-06T23:19:31.343Z,4.20
2019-04-06T23:22:01.119Z,4.20
2019-04-06T23:24:30.801Z,4.20
2019-04-06T23:27:00.317Z,4.20
2019-04-06T23:29:30.099Z,4.20
2019-04-06T23:31:59.924Z,4.20
2019-04-06T23:34:29.460Z,4.20
2019-04-06T23:36:59.158Z,4.30
2019-04-06T23:39:28.746Z,4.30
2019-04-06T23:41:58.893Z,4.20
2019-04-06T23:44:28.770Z,4.20
2019-04-06T23:46:58.803Z,4.20
2019-04-06T23:49:29.164Z,4.20
2019-04-06T23:51:58.919Z,4.20
2019-04-06T23:54:28.855Z,4.20
2019-04-06T23:56:59.162Z,4.20
2019-04-06T23:59:28.800Z,4.20
